Rhourd El Adra — 7TBS — position and weather

sailwx.info

Track history (hours):
 
Tides and Currents Weather Stations Pressure Air Temp Water Temp Dewpoint Dewpoint Depression Visibility Wind Speed Wind Dir Waves Ship Positions

Rhourd El Adra

Last reported at 2015-Mar-30 00:06 UTC. Time now 2015-Mar-30 01:04 UTC.
Position N 41°06' E 001°13'.

Length 156 m; draft 7.2 m.

Type: Ship (hazmat cat C). MMSI: 605026210.

Date/timePositionNaut miles runAvg speedWind from/ knotsBaromVisibWave heightAir tempDewpointWater temp
2015-Mar-30 00:06N 41°06' E 001°13'2 0.1
2015-Mar-29 02:09N 41°05' E 001°14'3 0.8
2015-Mar-28 22:24N 41°05' E 001°18'0 0.0
2015-Mar-28 20:18N 41°05' E 001°18'0 0.0
2015-Mar-28 18:25N 41°05' E 001°18'2 2.0
2015-Mar-28 17:33N 41°03' E 001°17'2 1.7
2015-Mar-28 16:32N 41°02' E 001°15'8 8.3
2015-Mar-28 15:33N 40°55' E 001°12'1414.4
2015-Mar-28 14:33N 40°41' E 001°06'1514.8
2015-Mar-28 13:34N 40°27' E 001°02'1514.9
2015-Mar-28 12:33N 40°12' E 000°58'1514.9
2015-Mar-28 11:33N 39°57' E 000°54'14714.6
2015-Mar-28 01:30N 37°34' E 000°15'3514.5
2015-Mar-27 23:06N 37°00' E 000°06'814.1
2015-Mar-27 22:33N 36°53' E 000°04'1414.3
2015-Mar-27 21:33N 36°39' W 000°00'3214.8
2015-Mar-27 19:25N 36°08' W 000°09'1714.0
2015-Mar-27 18:11N 35°51' W 000°13'  
2015-Mar-25 02:27N 39°57' E 000°53'1416.1
2015-Mar-25 01:33N 40°11' E 000°57'1616.0
2015-Mar-25 00:33N 40°27' E 001°01'  
2015-Mar-22 14:20N 40°36' E 001°05'1113.6
2015-Mar-22 13:33N 40°26' E 001°02'1614.1
2015-Mar-22 12:26N 40°10' E 000°57'6214.5
2015-Mar-22 08:09N 39°09' E 000°41'11214.1
2015-Mar-22 00:14N 37°20' E 000°11'  
Track history (hours):
 
Tides and Currents Weather Stations Pressure Air Temp Water Temp Dewpoint Dewpoint Depression Visibility Wind Speed Wind Dir Waves Ship Positions

Rhourd El Adra

Last reported at 2015-Mar-30 00:06 UTC. Time now 2015-Mar-30 01:04 UTC.
Position N 41°06' E 001°13'.

Length 156 m; draft 7.2 m.

Type: Ship (hazmat cat C). MMSI: 605026210.

Date/timePositionNaut miles runAvg speedWind from/ knotsBaromVisibWave heightAir tempDewpointWater temp
2015-Mar-30 00:06N 41°06' E 001°13'2 0.1
2015-Mar-29 02:09N 41°05' E 001°14'3 0.8
2015-Mar-28 22:24N 41°05' E 001°18'0 0.0
2015-Mar-28 20:18N 41°05' E 001°18'0 0.0
2015-Mar-28 18:25N 41°05' E 001°18'2 2.0
2015-Mar-28 17:33N 41°03' E 001°17'2 1.7
2015-Mar-28 16:32N 41°02' E 001°15'8 8.3
2015-Mar-28 15:33N 40°55' E 001°12'1414.4
2015-Mar-28 14:33N 40°41' E 001°06'1514.8
2015-Mar-28 13:34N 40°27' E 001°02'1514.9
2015-Mar-28 12:33N 40°12' E 000°58'1514.9
2015-Mar-28 11:33N 39°57' E 000°54'14714.6
2015-Mar-28 01:30N 37°34' E 000°15'3514.5
2015-Mar-27 23:06N 37°00' E 000°06'814.1
2015-Mar-27 22:33N 36°53' E 000°04'1414.3
2015-Mar-27 21:33N 36°39' W 000°00'3214.8
2015-Mar-27 19:25N 36°08' W 000°09'1714.0
2015-Mar-27 18:11N 35°51' W 000°13'  
2015-Mar-25 02:27N 39°57' E 000°53'1416.1
2015-Mar-25 01:33N 40°11' E 000°57'1616.0
2015-Mar-25 00:33N 40°27' E 001°01'  
2015-Mar-22 14:20N 40°36' E 001°05'1113.6
2015-Mar-22 13:33N 40°26' E 001°02'1614.1
2015-Mar-22 12:26N 40°10' E 000°57'6214.5
2015-Mar-22 08:09N 39°09' E 000°41'11214.1
2015-Mar-22 00:14N 37°20' E 000°11'  

Dump ship's entire track history